Terminal Aerodrome Forecast
Issued by NWS Bismarck, ND

Home | Current Version | Previous Version | Text Only | Print | Product List | Glossary Off
Versions: 1 2 3 4 5 6 7 8 9 10 11 12 13 14 15 16 17

000
FTUS43 KBIS 212200 AAB
TAFISN
TAF AMD
KISN 212254Z 2123/2218 01015KT P6SM VCSH SCT040 BKN100 OVC150
      TEMPO 2123/2124 -SHRA BKN070
     FM220100 02007KT P6SM SCT045 BKN110
     FM220400 01003KT P6SM SCT060=

USA.gov is the U.S. government's official web portal to all federal, state and local government web resources and services.